Time;durP1;ratioP1;P1;durP2;ratioP2;P2;SDS_P1;SDS_P2;PMS_P1;PMS_P2;Temp;Humidity;BMP_temperature;BMP_pressure;BME280_temperature;BME280_humidity;BME280_pressure;Samples;Min_cycle;Max_cycle;Signal;HPM_P1;HPM_P2
2023/06/03 00:01:34;;;;;;;3.13;1.80;;;10.60;96.10;;;;;;4970269;28;20439;-79
2023/06/03 00:04:00;;;;;;;3.97;1.67;;;10.60;95.70;;;;;;5017638;28;20037;-79
2023/06/03 00:06:25;;;;;;;3.45;1.95;;;10.60;95.70;;;;;;5005221;28;20052;-79
2023/06/03 00:08:51;;;;;;;2.83;1.70;;;10.60;95.60;;;;;;4999553;28;20053;-79
2023/06/03 00:11:17;;;;;;;4.32;1.35;;;10.50;95.30;;;;;;5006850;28;20176;-79
2023/06/03 00:13:43;;;;;;;2.92;1.75;;;10.50;95.40;;;;;;5001980;28;20045;-79
2023/06/03 00:16:09;;;;;;;4.25;1.70;;;10.50;95.40;;;;;;4995250;28;20046;-79
2023/06/03 00:18:34;;;;;;;5.75;1.60;;;10.40;95.30;;;;;;5004682;28;20034;-80
2023/06/03 00:21:01;;;;;;;3.10;1.70;;;10.40;95.20;;;;;;5020943;28;20046;-79
2023/06/03 00:23:27;;;;;;;5.72;1.80;;;10.30;95.10;;;;;;5003410;28;20498;-79
2023/06/03 00:25:53;;;;;;;2.97;1.77;;;10.30;95.10;;;;;;4995478;28;20046;-79
2023/06/03 00:28:19;;;;;;;6.55;1.63;;;10.30;95.10;;;;;;5010113;28;20045;-79
2023/06/03 00:30:45;;;;;;;2.15;1.45;;;10.30;95.10;;;;;;4986327;28;20056;-79
2023/06/03 00:33:11;;;;;;;5.65;1.65;;;10.20;95.00;;;;;;5003412;28;20034;-79
2023/06/03 00:35:36;;;;;;;3.47;1.42;;;10.20;95.10;;;;;;5020924;28;20396;-79
2023/06/03 00:38:02;;;;;;;3.80;1.60;;;10.10;95.20;;;;;;5002309;28;20037;-79
2023/06/03 00:40:28;;;;;;;2.58;1.42;;;10.10;95.20;;;;;;5004965;28;20033;-79
2023/06/03 00:42:54;;;;;;;6.32;1.60;;;10.10;95.30;;;;;;5015844;28;20046;-79
2023/06/03 00:45:19;;;;;;;1.75;1.48;;;10.10;95.20;;;;;;4975375;28;20125;-79
2023/06/03 00:47:46;;;;;;;3.15;1.60;;;10.10;95.20;;;;;;4998969;28;20034;-79
2023/06/03 00:50:13;;;;;;;1.75;1.38;;;10.00;95.00;;;;;;5003522;28;20042;-79
2023/06/03 00:52:40;;;;;;;3.70;1.50;;;10.00;95.00;;;;;;5021720;28;20123;-79
2023/06/03 00:55:06;;;;;;;4.95;1.35;;;10.00;95.10;;;;;;5007310;28;20057;-80
2023/06/03 00:57:32;;;;;;;1.55;1.45;;;10.00;95.20;;;;;;5002006;28;20497;-79
2023/06/03 00:59:58;;;;;;;2.67;1.40;;;10.00;95.10;;;;;;5009679;28;20403;-79
2023/06/03 01:02:24;;;;;;;3.38;1.50;;;10.00;95.20;;;;;;5003308;28;20129;-79
2023/06/03 01:04:51;;;;;;;3.35;1.45;;;9.90;95.10;;;;;;4990392;28;20064;-79
2023/06/03 01:07:22;;;;;;;2.80;1.50;;;9.90;95.20;;;;;;5021692;28;20112;-79
2023/06/03 01:10:17;;;;;;;7.53;1.93;;;9.90;95.10;;;;;;4983753;28;20148;-79
2023/06/03 01:12:48;;;;;;;3.25;1.30;;;9.90;94.90;;;;;;4979535;28;20487;-79
2023/06/03 01:15:27;;;;;;;1.75;1.33;;;9.90;94.90;;;;;;4984394;28;20054;-79
2023/06/03 01:17:57;;;;;;;4.20;1.55;;;9.90;94.90;;;;;;5000482;28;20610;-79
2023/06/03 01:20:26;;;;;;;1.48;1.13;;;9.90;94.80;;;;;;4990534;28;20765;-79
2023/06/03 01:23:13;;;;;;;2.22;1.27;;;9.90;94.80;;;;;;4986907;28;20041;-79
2023/06/03 01:25:41;;;;;;;1.75;1.30;;;9.80;94.90;;;;;;4987946;28;20684;-79
2023/06/03 01:28:07;;;;;;;4.70;1.45;;;9.80;94.80;;;;;;4979774;28;20043;-79
2023/06/03 01:30:34;;;;;;;3.65;1.38;;;9.80;94.80;;;;;;4984361;28;20038;-79
2023/06/03 01:33:01;;;;;;;1.45;1.20;;;9.80;94.90;;;;;;4981036;28;20039;-79
2023/06/03 01:35:27;;;;;;;3.40;1.27;;;9.80;94.90;;;;;;4985716;28;20077;-79
2023/06/03 01:37:54;;;;;;;2.33;1.30;;;9.80;94.80;;;;;;4978043;28;20041;-80
2023/06/03 01:40:20;;;;;;;2.83;1.60;;;9.80;94.90;;;;;;4984845;28;20041;-79
2023/06/03 01:42:46;;;;;;;3.75;1.50;;;9.70;94.80;;;;;;4972970;28;20161;-79
2023/06/03 01:45:11;;;;;;;4.32;1.63;;;9.80;95.00;;;;;;4986865;28;20068;-79
2023/06/03 01:47:37;;;;;;;4.45;1.58;;;9.80;95.00;;;;;;4963931;28;20150;-79
2023/06/03 01:50:03;;;;;;;3.70;1.48;;;9.70;95.00;;;;;;4982196;28;20380;-79
2023/06/03 01:52:29;;;;;;;2.15;1.52;;;9.70;95.20;;;;;;4964654;28;20038;-79
2023/06/03 01:54:55;;;;;;;2.38;1.33;;;9.60;95.20;;;;;;4986447;28;20041;-79
2023/06/03 01:57:21;;;;;;;2.15;1.50;;;9.60;95.20;;;;;;4983109;28;20113;-79
2023/06/03 01:59:47;;;;;;;3.28;1.63;;;9.50;95.30;;;;;;5004973;28;20133;-80
2023/06/03 02:02:12;;;;;;;1.80;1.45;;;9.50;95.50;;;;;;4989341;28;20030;-79
2023/06/03 02:04:38;;;;;;;2.25;1.60;;;9.50;95.60;;;;;;4987637;28;20046;-79
2023/06/03 02:07:04;;;;;;;3.85;1.60;;;9.40;95.70;;;;;;5003065;28;20038;-79
2023/06/03 02:09:30;;;;;;;2.08;1.50;;;9.40;95.90;;;;;;4987084;28;20735;-80
2023/06/03 02:12:00;;;;;;;4.47;1.77;;;9.30;96.10;;;;;;4963883;28;20038;-79
2023/06/03 02:14:29;;;;;;;3.50;1.90;;;9.30;96.10;;;;;;5004481;28;20053;-80
2023/06/03 02:16:55;;;;;;;3.58;1.35;;;9.30;96.20;;;;;;4979775;28;20418;-80
2023/06/03 02:19:25;;;;;;;2.15;1.58;;;9.20;96.40;;;;;;5000160;28;20034;-80
2023/06/03 02:21:52;;;;;;;4.43;1.52;;;9.20;96.50;;;;;;4985717;28;20096;-80
2023/06/03 02:24:19;;;;;;;4.25;1.70;;;9.10;96.70;;;;;;4995091;28;20072;-80
2023/06/03 02:26:52;;;;;;;2.88;1.40;;;9.10;96.70;;;;;;5003576;28;20134;-80
2023/06/03 02:29:22;;;;;;;6.00;1.92;;;9.00;96.80;;;;;;5007025;28;20546;-80
2023/06/03 02:31:52;;;;;;;2.63;1.48;;;9.00;96.90;;;;;;4984212;28;20042;-81
2023/06/03 02:34:18;;;;;;;3.97;1.60;;;8.90;96.90;;;;;;4981480;28;20746;-81
2023/06/03 02:36:43;;;;;;;3.95;1.65;;;8.90;96.90;;;;;;5007897;28;20100;-80
2023/06/03 02:39:11;;;;;;;2.25;1.77;;;9.00;97.00;;;;;;5002992;28;20030;-80
2023/06/03 02:41:38;;;;;;;2.53;1.60;;;9.00;97.00;;;;;;4984597;28;20125;-80
2023/06/03 02:44:04;;;;;;;2.45;1.67;;;9.00;97.00;;;;;;4986248;28;20403;-80
2023/06/03 02:46:31;;;;;;;3.47;1.63;;;9.00;97.10;;;;;;4972092;28;20092;-80
2023/06/03 02:48:57;;;;;;;2.83;1.67;;;9.00;97.20;;;;;;5000394;28;20148;-80
2023/06/03 02:51:23;;;;;;;3.10;1.77;;;9.00;97.10;;;;;;4982991;28;20038;-80
2023/06/03 02:53:49;;;;;;;3.13;1.35;;;9.00;97.30;;;;;;4963643;28;20125;-80
2023/06/03 02:56:15;;;;;;;3.90;1.60;;;9.00;97.20;;;;;;4991600;28;20045;-80
2023/06/03 02:58:41;;;;;;;3.13;1.50;;;9.00;97.40;;;;;;4972376;28;20038;-80
2023/06/03 03:01:07;;;;;;;3.30;1.70;;;8.90;97.40;;;;;;4998075;28;20403;-80
2023/06/03 03:03:35;;;;;;;2.03;1.55;;;8.90;97.40;;;;;;4958288;28;20120;-80
2023/06/03 03:06:03;;;;;;;2.25;1.52;;;8.90;97.60;;;;;;5009914;28;20426;-80
2023/06/03 03:08:33;;;;;;;2.63;1.40;;;8.80;97.90;;;;;;4984059;28;20078;-80
2023/06/03 03:10:59;;;;;;;2.33;1.30;;;8.70;98.00;;;;;;4979038;28;20046;-80
2023/06/03 03:13:25;;;;;;;2.53;1.42;;;8.70;98.10;;;;;;4967191;28;20042;-80
2023/06/03 03:15:50;;;;;;;4.35;1.75;;;8.60;98.20;;;;;;5001897;28;20537;-80
2023/06/03 03:18:16;;;;;;;5.40;1.35;;;8.60;98.30;;;;;;5020569;28;20048;-80
2023/06/03 03:20:42;;;;;;;2.70;1.23;;;8.50;98.60;;;;;;4987912;28;20088;-80
2023/06/03 03:23:11;;;;;;;2.63;1.48;;;8.50;98.60;;;;;;4999266;28;20033;-80
2023/06/03 03:25:37;;;;;;;3.45;1.65;;;8.50;98.90;;;;;;4982212;28;20042;-82
2023/06/03 03:28:03;;;;;;;4.10;1.75;;;8.40;98.80;;;;;;4983059;28;20095;-80
2023/06/03 03:30:29;;;;;;;3.15;1.45;;;8.50;99.00;;;;;;5004603;28;20069;-80
2023/06/03 03:32:58;;;;;;;3.70;1.70;;;8.40;99.30;;;;;;5003186;28;20072;-80
2023/06/03 03:35:25;;;;;;;2.25;1.42;;;8.40;99.10;;;;;;4988687;28;20045;-80
2023/06/03 03:38:02;;;;;;;3.05;1.52;;;8.40;99.50;;;;;;4992996;28;20495;-80
2023/06/03 03:40:29;;;;;;;3.05;1.65;;;8.40;99.70;;;;;;5003290;28;20761;-80
2023/06/03 03:42:55;;;;;;;5.28;1.52;;;8.40;99.50;;;;;;4978318;28;20042;-80
2023/06/03 03:45:25;;;;;;;6.55;2.22;;;8.40;99.60;;;;;;5006755;28;20034;-80
2023/06/03 03:47:52;;;;;;;2.78;1.83;;;8.30;99.50;;;;;;5005663;28;20663;-80
2023/06/03 03:50:36;;;;;;;3.47;1.55;;;8.40;99.70;;;;;;5002574;28;20045;-80
2023/06/03 03:53:04;;;;;;;4.95;2.25;;;8.40;99.90;;;;;;5016400;28;20049;-80
2023/06/03 03:55:30;;;;;;;5.35;2.10;;;8.40;99.80;;;;;;4986741;28;20064;-80
2023/06/03 03:57:56;;;;;;;3.55;1.65;;;8.40;99.70;;;;;;5007315;28;20530;-80
2023/06/03 04:00:22;;;;;;;5.93;2.53;;;8.30;99.90;;;;;;5008875;28;20041;-80
2023/06/03 04:02:53;;;;;;;2.53;1.77;;;8.30;99.90;;;;;;5008290;28;20038;-80
2023/06/03 04:05:23;;;;;;;3.80;1.70;;;8.40;99.90;;;;;;5011509;28;20410;-80
2023/06/03 04:07:49;;;;;;;4.78;1.92;;;8.40;99.90;;;;;;4995517;28;20427;-80
2023/06/03 04:10:15;;;;;;;3.20;1.60;;;8.40;99.90;;;;;;5011736;28;20073;-80
2023/06/03 04:12:41;;;;;;;2.72;1.40;;;8.30;99.90;;;;;;5026411;28;20088;-80
2023/06/03 04:15:08;;;;;;;2.63;1.95;;;8.40;99.90;;;;;;4996504;28;20514;-80
2023/06/03 04:17:37;;;;;;;5.85;1.90;;;8.40;99.90;;;;;;4993248;28;20061;-80
2023/06/03 04:20:13;;;;;;;3.55;1.73;;;8.40;99.90;;;;;;4993197;28;20041;-80
2023/06/03 04:22:39;;;;;;;4.43;2.03;;;8.40;99.90;;;;;;5004301;28;20034;-80
2023/06/03 04:25:09;;;;;;;3.40;1.88;;;8.40;99.90;;;;;;5005171;28;20040;-80
2023/06/03 04:27:34;;;;;;;4.50;1.75;;;8.40;99.90;;;;;;5009053;28;20514;-80
2023/06/03 04:30:01;;;;;;;3.28;1.73;;;8.40;99.90;;;;;;4986247;28;20033;-80
2023/06/03 04:32:26;;;;;;;4.30;1.98;;;8.40;99.90;;;;;;4989389;28;20131;-80
2023/06/03 04:34:54;;;;;;;4.82;2.05;;;8.40;99.90;;;;;;4970282;28;20034;-80
2023/06/03 04:37:22;;;;;;;2.08;1.77;;;8.40;99.90;;;;;;5000662;28;20038;-80
2023/06/03 04:39:51;;;;;;;2.55;1.70;;;8.40;99.90;;;;;;4994148;28;20096;-80
2023/06/03 04:42:17;;;;;;;4.00;1.80;;;8.50;99.90;;;;;;5008530;28;20074;-80
2023/06/03 04:44:43;;;;;;;3.50;1.90;;;8.50;99.90;;;;;;4995578;28;20072;-80
2023/06/03 04:47:11;;;;;;;3.15;1.70;;;8.60;99.90;;;;;;4998582;28;20072;-80
2023/06/03 04:49:40;;;;;;;3.25;1.90;;;8.60;99.90;;;;;;5008187;28;20660;-80
2023/06/03 04:52:10;;;;;;;2.38;1.80;;;8.70;99.90;;;;;;5011194;28;20125;-80
2023/06/03 04:54:37;;;;;;;6.45;2.35;;;8.80;99.90;;;;;;5024249;28;20049;-80
2023/06/03 04:57:03;;;;;;;5.70;2.10;;;8.80;99.90;;;;;;4984497;28;20142;-80
2023/06/03 04:59:29;;;;;;;2.55;1.60;;;8.90;99.90;;;;;;4978093;28;20033;-80
2023/06/03 05:01:55;;;;;;;3.85;1.77;;;8.90;99.90;;;;;;4993690;28;20040;-80
2023/06/03 05:04:22;;;;;;;2.95;1.88;;;9.00;99.90;;;;;;4995393;28;20033;-80
2023/06/03 05:06:48;;;;;;;3.10;1.67;;;9.10;99.90;;;;;;4994596;28;20128;-80
2023/06/03 05:09:15;;;;;;;3.08;2.13;;;9.20;99.90;;;;;;5012892;28;20045;-80
2023/06/03 05:11:43;;;;;;;5.50;1.70;;;9.30;99.90;;;;;;5008972;28;20098;-80
2023/06/03 05:14:09;;;;;;;2.33;1.80;;;9.40;99.90;;;;;;5019675;28;20053;-80
2023/06/03 05:16:36;;;;;;;3.55;1.70;;;9.50;99.90;;;;;;4988375;28;20399;-80
2023/06/03 05:19:01;;;;;;;2.22;1.55;;;9.60;99.90;;;;;;4999196;28;20049;-80
2023/06/03 05:21:27;;;;;;;3.58;1.60;;;9.70;99.90;;;;;;4990447;28;20037;-80
2023/06/03 05:23:53;;;;;;;2.92;1.88;;;9.70;99.90;;;;;;4967047;28;20034;-80
2023/06/03 05:26:18;;;;;;;4.90;1.65;;;9.80;99.90;;;;;;4974438;28;20042;-80
2023/06/03 05:28:44;;;;;;;3.40;1.67;;;9.90;99.90;;;;;;4997068;28;20041;-80
2023/06/03 05:31:10;;;;;;;3.03;1.90;;;9.90;99.90;;;;;;4990313;28;20483;-80
2023/06/03 05:33:36;;;;;;;5.47;2.33;;;10.00;99.90;;;;;;4990132;28;20143;-80
2023/06/03 05:36:02;;;;;;;3.03;2.22;;;10.10;99.90;;;;;;4988862;28;20033;-81
2023/06/03 05:38:27;;;;;;;4.50;1.70;;;10.20;99.90;;;;;;4991717;28;20545;-81
2023/06/03 05:40:53;;;;;;;2.90;1.90;;;10.20;99.90;;;;;;5024843;28;20045;-81
2023/06/03 05:43:19;;;;;;;4.20;1.98;;;10.30;99.90;;;;;;5032318;28;20060;-81
2023/06/03 05:45:46;;;;;;;3.80;1.90;;;10.40;99.90;;;;;;5014807;28;20049;-81
2023/06/03 05:48:11;;;;;;;3.17;1.77;;;10.50;99.90;;;;;;4994896;28;20037;-81
2023/06/03 05:50:39;;;;;;;2.10;1.70;;;10.60;99.90;;;;;;5002689;28;20415;-80
2023/06/03 05:53:05;;;;;;;5.35;1.83;;;10.70;99.90;;;;;;5015555;28;20046;-81
2023/06/03 05:55:31;;;;;;;4.07;1.90;;;10.80;99.90;;;;;;5020343;28;20072;-81
2023/06/03 05:57:57;;;;;;;3.15;1.73;;;10.90;99.80;;;;;;4988074;28;20494;-81
2023/06/03 06:00:23;;;;;;;3.67;1.77;;;10.90;99.70;;;;;;4997797;28;20037;-81
2023/06/03 06:02:50;;;;;;;3.80;1.77;;;11.00;99.40;;;;;;4999824;28;20045;-81
2023/06/03 06:05:16;;;;;;;4.97;1.50;;;11.10;99.40;;;;;;5002407;28;20128;-80
2023/06/03 06:07:41;;;;;;;2.22;1.70;;;11.30;99.00;;;;;;5007400;28;20149;-78
2023/06/03 06:10:07;;;;;;;3.90;2.08;;;11.40;99.10;;;;;;4977216;28;20034;-79
2023/06/03 06:12:33;;;;;;;3.50;1.80;;;11.50;98.90;;;;;;4981734;28;20034;-81
2023/06/03 06:14:59;;;;;;;2.60;1.67;;;11.60;98.90;;;;;;5005131;28;20121;-80
2023/06/03 06:17:24;;;;;;;2.90;1.48;;;11.70;98.70;;;;;;5005778;28;20053;-77
2023/06/03 06:19:50;;;;;;;3.17;1.40;;;11.80;98.60;;;;;;4980223;28;20037;-80
2023/06/03 06:22:16;;;;;;;3.88;1.42;;;11.90;98.40;;;;;;4991851;28;20048;-84
2023/06/03 06:24:42;;;;;;;4.43;1.67;;;12.10;97.60;;;;;;4961797;28;20045;-82
2023/06/03 06:27:08;;;;;;;2.20;1.50;;;12.20;97.60;;;;;;4969219;28;20041;-82
2023/06/03 06:29:34;;;;;;;8.13;1.52;;;12.40;97.40;;;;;;4990033;28;20049;-82
2023/06/03 06:32:00;;;;;;;3.38;1.42;;;12.60;96.90;;;;;;4973139;28;20037;-81
2023/06/03 06:34:31;;;;;;;4.97;1.40;;;12.70;96.70;;;;;;4989641;28;20084;-82
2023/06/03 06:36:58;;;;;;;2.40;1.30;;;12.80;95.80;;;;;;4985794;28;20041;-80
2023/06/03 06:39:33;;;;;;;4.22;1.80;;;12.90;95.60;;;;;;4990700;28;20099;-77
2023/06/03 06:42:36;;;;;;;6.93;1.73;;;13.00;95.20;;;;;;4991419;28;20037;-77
2023/06/03 06:45:11;;;;;;;2.97;1.45;;;13.10;94.50;;;;;;4999106;28;20493;-77
2023/06/03 06:47:37;;;;;;;1.90;1.77;;;13.30;94.60;;;;;;5005645;28;20038;-77
2023/06/03 06:50:07;;;;;;;4.70;1.40;;;13.60;95.10;;;;;;5005322;28;20042;-77
2023/06/03 06:52:35;;;;;;;1.77;1.25;;;13.70;94.50;;;;;;5009389;28;20148;-77
2023/06/03 06:55:01;;;;;;;4.13;1.27;;;13.90;94.20;;;;;;5011164;28;20143;-77
2023/06/03 06:57:28;;;;;;;4.75;1.55;;;14.10;93.70;;;;;;4988151;28;20430;-77
2023/06/03 06:59:54;;;;;;;3.38;1.20;;;14.30;93.50;;;;;;4993314;28;20037;-77
2023/06/03 07:02:21;;;;;;;5.60;1.60;;;14.50;93.10;;;;;;5009330;28;20528;-77
2023/06/03 07:04:49;;;;;;;3.58;1.30;;;14.60;92.80;;;;;;4979429;28;20406;-77
2023/06/03 07:07:14;;;;;;;9.00;1.50;;;14.80;92.60;;;;;;5010046;28;20033;-78
2023/06/03 07:09:41;;;;;;;4.20;1.27;;;15.00;92.00;;;;;;4990445;28;20775;-77
2023/06/03 07:12:07;;;;;;;2.08;1.10;;;15.20;92.20;;;;;;4979269;28;20045;-77
2023/06/03 07:14:33;;;;;;;2.53;1.20;;;15.40;91.70;;;;;;4986894;28;20097;-77
2023/06/03 07:16:59;;;;;;;4.07;1.52;;;15.60;91.60;;;;;;4985501;28;20120;-77
2023/06/03 07:19:40;;;;;;;2.70;1.05;;;15.70;91.70;;;;;;4999799;28;20041;-77
2023/06/03 07:22:06;;;;;;;6.40;1.45;;;15.90;91.10;;;;;;5002812;28;20163;-77
2023/06/03 07:24:36;;;;;;;2.35;1.27;;;15.90;90.60;;;;;;4996358;28;20073;-84
2023/06/03 07:27:06;;;;;;;4.45;1.70;;;16.20;90.80;;;;;;4994699;28;20069;-85
2023/06/03 07:29:38;;;;;;;4.43;1.25;;;16.30;90.10;;;;;;5008377;28;20083;-76
2023/06/03 07:32:08;;;;;;;2.38;1.23;;;16.50;90.20;;;;;;5000556;28;20049;-77
2023/06/03 07:34:34;;;;;;;2.05;1.20;;;16.60;90.00;;;;;;4985439;28;20038;-76
2023/06/03 07:37:02;;;;;;;1.98;1.40;;;16.80;90.10;;;;;;4973684;28;20613;-76
2023/06/03 07:39:28;;;;;;;2.95;1.33;;;17.00;88.50;;;;;;5005760;28;20041;-77
2023/06/03 07:41:54;;;;;;;14.10;2.45;;;17.10;87.20;;;;;;4989789;28;20046;-77
2023/06/03 07:44:48;;;;;;;7.20;1.65;;;17.20;88.60;;;;;;5004987;28;20040;-77
2023/06/03 07:47:16;;;;;;;8.75;1.50;;;17.40;87.70;;;;;;5026922;28;20053;-77
2023/06/03 07:49:46;;;;;;;3.17;1.48;;;17.40;86.00;;;;;;4969090;28;20541;-77
2023/06/03 07:52:18;;;;;;;6.80;1.52;;;17.40;85.80;;;;;;4978676;28;20347;-77
2023/06/03 07:54:44;;;;;;;1.58;1.00;;;17.40;84.50;;;;;;4994791;28;20384;-78
2023/06/03 07:57:12;;;;;;;8.70;1.65;;;17.50;85.50;;;;;;5000009;28;20037;-76
2023/06/03 07:59:50;;;;;;;7.47;1.20;;;17.70;85.50;;;;;;5003848;28;20037;-75
2023/06/03 08:02:16;;;;;;;3.00;1.30;;;17.80;85.30;;;;;;4991251;28;20034;-76
2023/06/03 08:04:41;;;;;;;5.93;1.63;;;17.80;84.50;;;;;;4992570;28;20065;-75
2023/06/03 08:07:07;;;;;;;2.08;1.10;;;17.90;83.80;;;;;;4992278;28;20045;-75
2023/06/03 08:09:35;;;;;;;5.50;1.40;;;17.80;83.40;;;;;;5008131;28;20046;-76
2023/06/03 08:12:04;;;;;;;3.15;1.13;;;17.60;82.80;;;;;;4991726;28;20030;-76
2023/06/03 08:14:32;;;;;;;17.45;2.78;;;17.50;82.30;;;;;;4993440;28;20061;-76
2023/06/03 08:17:03;;;;;;;6.47;3.35;;;17.30;81.30;;;;;;5007770;28;20037;-76
2023/06/03 08:19:29;;;;;;;2.70;1.08;;;17.10;80.70;;;;;;4992283;28;20112;-75
2023/06/03 08:21:55;;;;;;;1.20;1.02;;;17.00;81.50;;;;;;4969233;28;20593;-75
2023/06/03 08:24:20;;;;;;;15.10;2.28;;;16.80;81.30;;;;;;5000390;28;20041;-76
2023/06/03 08:26:46;;;;;;;3.70;1.00;;;16.70;81.20;;;;;;5011686;28;20041;-76
2023/06/03 08:29:12;;;;;;;8.45;1.70;;;16.80;81.40;;;;;;4979425;28;20127;-76
2023/06/03 08:31:38;;;;;;;3.20;1.27;;;17.00;81.60;;;;;;4995283;28;20087;-75
2023/06/03 08:34:04;;;;;;;1.45;1.05;;;17.50;82.00;;;;;;5010868;28;20049;-76
2023/06/03 08:36:31;;;;;;;2.75;1.40;;;17.90;81.60;;;;;;5011249;28;20032;-75
2023/06/03 08:38:58;;;;;;;7.72;1.50;;;18.00;80.00;;;;;;4996250;28;20045;-76
2023/06/03 08:41:38;;;;;;;1.65;1.20;;;18.30;77.50;;;;;;4998130;28;20048;-75
2023/06/03 08:44:21;;;;;;;1.48;1.08;;;18.50;79.30;;;;;;4998771;28;20041;-76
2023/06/03 08:46:52;;;;;;;;;;;18.90;79.80;;;;;;5019052;28;20088;-76
2023/06/03 08:49:28;;;;;;;3.55;1.10;;;18.90;77.20;;;;;;5014909;28;20016;-76
2023/06/03 08:51:56;;;;;;;8.35;2.22;;;19.10;77.70;;;;;;5014771;28;20045;-76
2023/06/03 08:54:29;;;;;;;2.35;1.13;;;19.20;77.70;;;;;;5014707;28;20076;-76
2023/06/03 08:57:01;;;;;;;6.63;1.35;;;19.30;76.70;;;;;;5014743;28;20313;-76
2023/06/03 08:59:29;;;;;;;1.20;0.80;;;19.40;76.30;;;;;;4992859;28;20034;-76
2023/06/03 09:01:56;;;;;;;5.75;1.30;;;19.70;76.40;;;;;;5008148;28;20482;-76
2023/06/03 09:04:23;;;;;;;2.70;0.90;;;19.80;75.70;;;;;;5014048;28;20041;-75
2023/06/03 09:06:50;;;;;;;3.50;1.13;;;20.00;73.80;;;;;;5014524;28;20059;-76
2023/06/03 09:09:16;;;;;;;1.33;1.00;;;20.10;75.20;;;;;;4998183;28;20050;-76
2023/06/03 09:11:45;;;;;;;8.38;1.20;;;20.20;75.00;;;;;;4998133;28;20041;-76
2023/06/03 09:14:11;;;;;;;1.02;0.90;;;20.40;74.70;;;;;;5013346;28;20537;-76
2023/06/03 09:16:36;;;;;;;6.15;1.40;;;20.50;72.90;;;;;;5014424;28;20081;-76
2023/06/03 09:19:03;;;;;;;1.23;0.85;;;20.40;72.20;;;;;;5031020;28;20482;-76
2023/06/03 09:21:29;;;;;;;3.40;1.80;;;20.40;72.50;;;;;;5014694;28;20496;-76
2023/06/03 09:23:54;;;;;;;1.42;1.10;;;20.50;73.30;;;;;;4998537;28;20128;-76
2023/06/03 09:26:21;;;;;;;3.63;1.17;;;20.60;72.90;;;;;;5014249;28;20116;-76
2023/06/03 09:28:47;;;;;;;2.08;1.23;;;20.70;72.20;;;;;;4997238;28;20102;-76
2023/06/03 09:31:13;;;;;;;2.33;1.25;;;20.80;72.40;;;;;;4997757;28;20040;-76
2023/06/03 09:33:40;;;;;;;2.47;1.30;;;20.80;70.80;;;;;;4981376;28;20562;-76
2023/06/03 09:36:15;;;;;;;2.55;1.38;;;20.80;71.60;;;;;;4997860;28;20124;-76
2023/06/03 09:38:47;;;;;;;5.82;1.50;;;20.80;70.70;;;;;;5013700;28;20557;-76
2023/06/03 09:41:17;;;;;;;2.85;1.10;;;20.80;69.30;;;;;;5030056;28;20482;-75
2023/06/03 09:44:01;;;;;;;9.10;1.20;;;20.90;71.00;;;;;;4996649;28;20060;-76
2023/06/03 09:46:30;;;;;;;2.97;1.48;;;20.80;69.70;;;;;;5013145;28;20050;-76
2023/06/03 09:49:08;;;;;;;5.95;1.38;;;21.00;73.00;;;;;;5013748;28;20120;-75
2023/06/03 09:51:48;;;;;;;1.88;1.60;;;21.10;70.20;;;;;;5012568;28;20063;-75
2023/06/03 09:54:24;;;;;;;10.00;1.50;;;21.20;70.70;;;;;;5013627;28;20045;-75
2023/06/03 09:56:53;;;;;;;7.75;1.58;;;21.50;69.50;;;;;;5012825;28;20049;-75
2023/06/03 09:59:25;;;;;;;15.13;2.25;;;21.50;68.80;;;;;;4997517;28;20037;-76
2023/06/03 10:01:54;;;;;;;29.85;2.58;;;21.40;69.80;;;;;;5013496;28;20037;-76
2023/06/03 10:04:23;;;;;;;5.85;1.10;;;21.40;68.40;;;;;;5012916;28;20049;-76
2023/06/03 10:07:16;;;;;;;12.20;1.60;;;21.30;70.30;;;;;;5012788;28;20041;-76
2023/06/03 10:09:46;;;;;;;3.40;1.20;;;21.40;69.60;;;;;;4999463;28;20040;-75
2023/06/03 10:12:13;;;;;;;7.68;1.90;;;21.20;68.60;;;;;;5013578;28;20053;-76
2023/06/03 10:14:49;;;;;;;20.02;1.67;;;21.10;68.70;;;;;;4983287;28;20057;-76
2023/06/03 10:17:17;;;;;;;4.72;1.65;;;21.00;67.90;;;;;;4968377;28;20033;-76
2023/06/03 10:19:44;;;;;;;3.90;1.50;;;21.10;68.50;;;;;;5012561;28;20671;-76
2023/06/03 10:22:15;;;;;;;3.33;1.17;;;21.30;69.00;;;;;;4996185;28;20030;-75
2023/06/03 10:24:42;;;;;;;2.00;1.20;;;21.40;68.70;;;;;;4997498;28;20064;-75
2023/06/03 10:27:12;;;;;;;1.73;1.15;;;21.60;68.90;;;;;;5013088;28;20449;-75
2023/06/03 10:29:39;;;;;;;4.90;1.30;;;21.80;67.90;;;;;;5024436;28;20041;-75
2023/06/03 10:32:10;;;;;;;2.78;1.30;;;22.00;68.20;;;;;;5012999;28;20041;-76
2023/06/03 10:34:47;;;;;;;3.80;1.65;;;22.00;68.60;;;;;;4996343;28;20457;-76
2023/06/03 10:37:14;;;;;;;3.10;1.10;;;22.10;66.10;;;;;;4995394;28;20588;-76
2023/06/03 10:39:42;;;;;;;3.67;1.35;;;22.30;67.10;;;;;;5012552;28;20033;-75
2023/06/03 10:42:11;;;;;;;5.53;1.92;;;22.40;67.20;;;;;;4996172;28;20047;-75
2023/06/03 10:44:37;;;;;;;4.80;1.30;;;22.50;67.70;;;;;;4995049;28;20037;-75
2023/06/03 10:47:23;;;;;;;3.13;1.17;;;22.50;67.40;;;;;;5012689;28;20042;-76
2023/06/03 10:50:10;;;;;;;4.78;1.17;;;22.50;65.20;;;;;;4993854;28;20037;-76
2023/06/03 10:52:47;;;;;;;3.95;1.40;;;22.60;66.20;;;;;;5022747;28;20044;-77
2023/06/03 10:55:54;;;;;;;4.43;1.50;;;22.60;65.70;;;;;;5010134;28;20040;-77
2023/06/03 10:58:24;;;;;;;3.40;1.45;;;22.60;65.50;;;;;;5009820;28;20112;-74
2023/06/03 11:01:04;;;;;;;2.35;1.42;;;22.50;64.50;;;;;;5008537;28;20470;-74
2023/06/03 11:03:31;;;;;;;5.22;1.05;;;22.50;64.90;;;;;;5009369;28;20049;-75
2023/06/03 11:06:21;;;;;;;2.92;1.40;;;22.60;65.30;;;;;;5007225;28;20041;-80
2023/06/03 11:09:05;;;;;;;4.47;1.70;;;22.70;64.70;;;;;;5006680;28;20652;-78
2023/06/03 11:11:44;;;;;;;4.78;1.60;;;22.70;66.30;;;;;;4990615;28;20049;-75
2023/06/03 11:14:29;;;;;;;5.13;1.45;;;22.80;64.50;;;;;;5002650;28;20076;-77
2023/06/03 11:16:58;;;;;;;1.77;1.10;;;22.80;64.40;;;;;;5006549;28;20041;-76
2023/06/03 11:19:37;;;;;;;2.55;1.30;;;22.80;65.10;;;;;;4989381;28;20106;-75
2023/06/03 11:22:10;;;;;;;5.88;1.15;;;22.80;62.80;;;;;;4991750;28;20166;-76
2023/06/03 11:24:39;;;;;;;7.63;1.48;;;22.90;64.50;;;;;;5015949;28;20111;-76
2023/06/03 11:27:14;;;;;;;4.72;1.45;;;22.90;63.30;;;;;;4996052;28;20135;-76
2023/06/03 11:30:01;;;;;;;2.90;1.38;;;23.00;64.00;;;;;;5025708;28;20498;-77
2023/06/03 11:32:38;;;;;;;2.42;1.48;;;23.00;63.60;;;;;;5009177;28;20041;-75
2023/06/03 11:35:04;;;;;;;1.42;1.10;;;23.00;64.90;;;;;;5008777;28;20063;-76
2023/06/03 11:37:53;;;;;;;3.70;1.25;;;23.20;64.80;;;;;;5027292;28;20044;-76
2023/06/03 11:40:20;;;;;;;6.28;1.45;;;23.20;64.70;;;;;;5018930;28;20115;-68
2023/06/03 11:42:46;;;;;;;3.60;2.30;;;23.30;64.50;;;;;;5011415;28;20069;-68
2023/06/03 11:45:30;;;;;;;6.03;3.97;;;23.40;64.10;;;;;;5026777;28;20123;-68
2023/06/03 11:48:05;;;;;;;7.20;3.53;;;23.50;62.90;;;;;;5021971;28;20069;-69
2023/06/03 11:50:57;;;;;;;6.97;3.10;;;23.40;64.00;;;;;;4987010;28;20060;-69
2023/06/03 11:53:33;;;;;;;3.33;1.75;;;23.30;60.80;;;;;;5025955;28;20072;-68
2023/06/03 11:56:08;;;;;;;1.83;1.40;;;23.30;61.50;;;;;;5008040;28;20045;-66
2023/06/03 11:58:36;;;;;;;5.63;1.90;;;23.10;61.00;;;;;;5007159;28;20420;-76
2023/06/03 12:01:10;;;;;;;9.32;1.40;;;23.10;62.30;;;;;;4987926;28;20034;-68
2023/06/03 12:03:37;;;;;;;9.00;1.40;;;23.20;63.20;;;;;;5000619;28;20049;-68
2023/06/03 12:06:04;;;;;;;2.72;1.42;;;23.20;63.30;;;;;;5006105;28;20041;-69
2023/06/03 12:08:47;;;;;;;1.98;1.33;;;23.40;63.80;;;;;;5006999;28;20483;-68
2023/06/03 12:11:29;;;;;;;1.65;1.10;;;23.50;63.30;;;;;;5024766;28;20116;-69
2023/06/03 12:13:55;;;;;;;2.72;1.80;;;23.50;65.40;;;;;;5022905;28;20411;-69
2023/06/03 12:16:32;;;;;;;5.43;2.53;;;23.50;64.10;;;;;;4993611;28;20687;-70
2023/06/03 12:19:00;;;;;;;2.67;1.80;;;23.40;65.40;;;;;;5027309;28;20042;-70
2023/06/03 12:21:27;;;;;;;5.50;3.80;;;23.30;62.90;;;;;;5009943;28;20048;-69
2023/06/03 12:23:53;;;;;;;5.07;3.35;;;23.20;62.70;;;;;;4994254;28;20045;-69
2023/06/03 12:26:19;;;;;;;2.25;1.63;;;23.30;62.30;;;;;;5009343;28;20052;-70
2023/06/03 12:28:46;;;;;;;6.75;2.95;;;23.20;62.20;;;;;;5010142;28;20045;-71
2023/06/03 12:31:16;;;;;;;6.10;3.00;;;23.20;62.80;;;;;;4977389;28;20582;-69
2023/06/03 12:33:43;;;;;;;2.95;1.50;;;23.10;61.80;;;;;;5028939;28;20505;-69
2023/06/03 12:36:09;;;;;;;3.88;1.75;;;23.20;61.00;;;;;;5011058;28;20148;-69
2023/06/03 12:38:56;;;;;;;3.20;1.30;;;23.20;64.00;;;;;;5009810;28;20045;-70
2023/06/03 12:41:22;;;;;;;10.95;1.77;;;23.30;59.50;;;;;;5024965;28;20038;-69
2023/06/03 12:43:58;;;;;;;3.65;2.00;;;23.30;61.50;;;;;;5028954;28;20042;-69
2023/06/03 12:46:24;;;;;;;3.13;1.98;;;23.40;60.40;;;;;;4994959;28;20041;-69
2023/06/03 12:48:52;;;;;;;4.30;1.52;;;23.50;61.80;;;;;;5010625;28;20500;-69
2023/06/03 12:51:29;;;;;;;1.23;0.90;;;23.70;61.40;;;;;;5009252;28;20048;-69
2023/06/03 12:53:56;;;;;;;5.95;1.40;;;23.90;60.50;;;;;;5028228;28;20175;-69
2023/06/03 12:56:33;;;;;;;3.90;2.88;;;23.90;60.60;;;;;;4994421;28;20116;-69
2023/06/03 12:59:00;;;;;;;4.25;2.00;;;24.10;61.10;;;;;;5010584;28;20037;-69
2023/06/03 13:01:26;;;;;;;3.92;1.70;;;24.10;61.30;;;;;;5009771;28;20037;-69